sensor_id;sensor_type;location;lat;lon;timestamp;P1;durP1;ratioP1;P2;durP2;ratioP2
67571;SDS011;54397;47.506;19.158;2024-02-23T00:03:06;3.17;;;2.03;;
67571;SDS011;54397;47.506;19.158;2024-02-23T00:06:34;2.90;;;2.00;;
67571;SDS011;54397;47.506;19.158;2024-02-23T00:09:55;2.58;;;1.95;;
67571;SDS011;54397;47.506;19.158;2024-02-23T00:13:22;2.20;;;2.00;;
67571;SDS011;54397;47.506;19.158;2024-02-23T00:16:43;3.00;;;2.15;;
67571;SDS011;54397;47.506;19.158;2024-02-23T00:20:08;2.63;;;2.13;;
67571;SDS011;54397;47.506;19.158;2024-02-23T00:23:32;3.60;;;2.35;;
67571;SDS011;54397;47.506;19.158;2024-02-23T00:26:54;2.72;;;2.00;;
67571;SDS011;54397;47.506;19.158;2024-02-23T00:30:15;2.58;;;1.90;;
67571;SDS011;54397;47.506;19.158;2024-02-23T00:33:37;3.75;;;2.20;;
67571;SDS011;54397;47.506;19.158;2024-02-23T00:37:03;2.78;;;2.30;;
67571;SDS011;54397;47.506;19.158;2024-02-23T00:40:25;2.55;;;2.13;;
67571;SDS011;54397;47.506;19.158;2024-02-23T00:43:47;2.97;;;2.28;;
67571;SDS011;54397;47.506;19.158;2024-02-23T00:47:11;3.03;;;2.40;;
67571;SDS011;54397;47.506;19.158;2024-02-23T00:50:35;4.65;;;2.50;;
67571;SDS011;54397;47.506;19.158;2024-02-23T00:53:59;2.40;;;2.20;;
67571;SDS011;54397;47.506;19.158;2024-02-23T00:57:20;2.53;;;2.33;;
67571;SDS011;54397;47.506;19.158;2024-02-23T01:00:48;3.40;;;2.10;;
67571;SDS011;54397;47.506;19.158;2024-02-23T01:04:15;2.40;;;2.20;;
67571;SDS011;54397;47.506;19.158;2024-02-23T01:07:39;2.55;;;2.13;;
67571;SDS011;54397;47.506;19.158;2024-02-23T01:11:03;4.18;;;2.53;;
67571;SDS011;54397;47.506;19.158;2024-02-23T01:14:27;5.95;;;2.88;;
67571;SDS011;54397;47.506;19.158;2024-02-23T01:17:49;3.80;;;2.85;;
67571;SDS011;54397;47.506;19.158;2024-02-23T01:21:11;3.95;;;3.03;;
67571;SDS011;54397;47.506;19.158;2024-02-23T01:24:32;5.63;;;2.58;;
67571;SDS011;54397;47.506;19.158;2024-02-23T01:27:57;3.30;;;2.38;;
67571;SDS011;54397;47.506;19.158;2024-02-23T01:31:18;4.68;;;2.30;;
67571;SDS011;54397;47.506;19.158;2024-02-23T01:34:40;3.75;;;2.50;;
67571;SDS011;54397;47.506;19.158;2024-02-23T01:38:02;3.13;;;2.45;;
67571;SDS011;54397;47.506;19.158;2024-02-23T01:41:24;5.03;;;2.47;;
67571;SDS011;54397;47.506;19.158;2024-02-23T01:44:48;3.50;;;2.78;;
67571;SDS011;54397;47.506;19.158;2024-02-23T01:48:10;3.60;;;2.85;;
67571;SDS011;54397;47.506;19.158;2024-02-23T01:51:35;2.85;;;2.50;;
67571;SDS011;54397;47.506;19.158;2024-02-23T01:54:57;4.72;;;3.00;;
67571;SDS011;54397;47.506;19.158;2024-02-23T01:58:19;4.43;;;2.88;;
67571;SDS011;54397;47.506;19.158;2024-02-23T02:01:45;3.72;;;2.90;;
67571;SDS011;54397;47.506;19.158;2024-02-23T02:05:10;4.47;;;3.00;;
67571;SDS011;54397;47.506;19.158;2024-02-23T02:08:33;4.15;;;2.90;;
67571;SDS011;54397;47.506;19.158;2024-02-23T02:11:58;2.92;;;2.53;;
67571;SDS011;54397;47.506;19.158;2024-02-23T02:15:20;3.33;;;2.15;;
67571;SDS011;54397;47.506;19.158;2024-02-23T02:18:44;2.97;;;2.45;;
67571;SDS011;54397;47.506;19.158;2024-02-23T02:22:07;3.63;;;2.50;;
67571;SDS011;54397;47.506;19.158;2024-02-23T02:25:28;3.63;;;2.60;;
67571;SDS011;54397;47.506;19.158;2024-02-23T02:28:50;3.13;;;2.58;;
67571;SDS011;54397;47.506;19.158;2024-02-23T02:32:13;4.00;;;2.60;;
67571;SDS011;54397;47.506;19.158;2024-02-23T02:35:35;3.30;;;2.50;;
67571;SDS011;54397;47.506;19.158;2024-02-23T02:38:57;3.72;;;2.60;;
67571;SDS011;54397;47.506;19.158;2024-02-23T02:42:21;3.85;;;2.40;;
67571;SDS011;54397;47.506;19.158;2024-02-23T02:45:42;2.60;;;2.40;;
67571;SDS011;54397;47.506;19.158;2024-02-23T02:49:05;3.65;;;2.15;;
67571;SDS011;54397;47.506;19.158;2024-02-23T02:52:26;4.03;;;2.30;;
67571;SDS011;54397;47.506;19.158;2024-02-23T02:55:50;2.65;;;2.25;;
67571;SDS011;54397;47.506;19.158;2024-02-23T02:59:12;2.45;;;2.25;;
67571;SDS011;54397;47.506;19.158;2024-02-23T03:02:34;4.20;;;2.88;;
67571;SDS011;54397;47.506;19.158;2024-02-23T03:05:59;3.28;;;2.70;;
67571;SDS011;54397;47.506;19.158;2024-02-23T03:09:23;3.33;;;2.88;;
67571;SDS011;54397;47.506;19.158;2024-02-23T03:12:44;3.42;;;2.60;;
67571;SDS011;54397;47.506;19.158;2024-02-23T03:16:06;3.17;;;2.80;;
67571;SDS011;54397;47.506;19.158;2024-02-23T03:19:35;3.60;;;2.60;;
67571;SDS011;54397;47.506;19.158;2024-02-23T03:22:58;4.35;;;2.60;;
67571;SDS011;54397;47.506;19.158;2024-02-23T03:26:19;8.43;;;2.80;;
67571;SDS011;54397;47.506;19.158;2024-02-23T03:29:44;3.85;;;2.63;;
67571;SDS011;54397;47.506;19.158;2024-02-23T03:33:06;3.60;;;2.60;;
67571;SDS011;54397;47.506;19.158;2024-02-23T03:36:28;2.97;;;2.50;;
67571;SDS011;54397;47.506;19.158;2024-02-23T03:39:50;4.25;;;2.85;;
67571;SDS011;54397;47.506;19.158;2024-02-23T03:43:11;3.85;;;2.30;;
67571;SDS011;54397;47.506;19.158;2024-02-23T03:46:35;4.00;;;2.80;;
67571;SDS011;54397;47.506;19.158;2024-02-23T03:49:57;3.00;;;2.70;;
67571;SDS011;54397;47.506;19.158;2024-02-23T03:53:21;5.70;;;3.10;;
67571;SDS011;54397;47.506;19.158;2024-02-23T03:56:43;3.35;;;2.60;;
67571;SDS011;54397;47.506;19.158;2024-02-23T04:00:05;4.85;;;2.92;;
67571;SDS011;54397;47.506;19.158;2024-02-23T04:03:31;4.32;;;2.70;;
67571;SDS011;54397;47.506;19.158;2024-02-23T04:06:55;4.10;;;2.70;;
67571;SDS011;54397;47.506;19.158;2024-02-23T04:10:17;3.20;;;2.80;;
67571;SDS011;54397;47.506;19.158;2024-02-23T04:13:43;4.65;;;2.90;;
67571;SDS011;54397;47.506;19.158;2024-02-23T04:17:07;2.97;;;2.65;;
67571;SDS011;54397;47.506;19.158;2024-02-23T04:20:29;4.05;;;2.92;;
67571;SDS011;54397;47.506;19.158;2024-02-23T04:23:51;4.28;;;2.70;;
67571;SDS011;54397;47.506;19.158;2024-02-23T04:27:13;3.78;;;2.58;;
67571;SDS011;54397;47.506;19.158;2024-02-23T04:30:34;3.35;;;2.90;;
67571;SDS011;54397;47.506;19.158;2024-02-23T04:33:56;3.58;;;2.70;;
67571;SDS011;54397;47.506;19.158;2024-02-23T04:37:20;4.57;;;3.10;;
67571;SDS011;54397;47.506;19.158;2024-02-23T04:40:41;4.00;;;3.05;;
67571;SDS011;54397;47.506;19.158;2024-02-23T04:44:03;4.60;;;3.38;;
67571;SDS011;54397;47.506;19.158;2024-02-23T04:47:25;5.22;;;4.00;;
67571;SDS011;54397;47.506;19.158;2024-02-23T04:50:47;3.92;;;2.85;;
67571;SDS011;54397;47.506;19.158;2024-02-23T04:54:11;9.45;;;3.63;;
67571;SDS011;54397;47.506;19.158;2024-02-23T04:57:32;4.43;;;3.10;;
67571;SDS011;54397;47.506;19.158;2024-02-23T05:00:54;5.55;;;3.58;;
67571;SDS011;54397;47.506;19.158;2024-02-23T05:04:16;4.65;;;3.08;;
67571;SDS011;54397;47.506;19.158;2024-02-23T05:07:38;4.20;;;2.95;;
67571;SDS011;54397;47.506;19.158;2024-02-23T05:11:00;4.85;;;3.83;;
67571;SDS011;54397;47.506;19.158;2024-02-23T05:14:24;6.00;;;4.30;;
67571;SDS011;54397;47.506;19.158;2024-02-23T05:17:47;5.05;;;3.00;;
67571;SDS011;54397;47.506;19.158;2024-02-23T05:21:09;3.92;;;3.40;;
67571;SDS011;54397;47.506;19.158;2024-02-23T05:24:31;3.92;;;3.40;;
67571;SDS011;54397;47.506;19.158;2024-02-23T05:27:52;3.20;;;2.90;;
67571;SDS011;54397;47.506;19.158;2024-02-23T05:31:16;3.75;;;3.10;;
67571;SDS011;54397;47.506;19.158;2024-02-23T05:34:38;4.80;;;3.00;;
67571;SDS011;54397;47.506;19.158;2024-02-23T05:38:02;3.88;;;2.90;;
67571;SDS011;54397;47.506;19.158;2024-02-23T05:41:27;2.65;;;2.45;;
67571;SDS011;54397;47.506;19.158;2024-02-23T05:44:49;4.72;;;2.70;;
67571;SDS011;54397;47.506;19.158;2024-02-23T05:48:11;4.53;;;2.65;;
67571;SDS011;54397;47.506;19.158;2024-02-23T05:51:33;6.85;;;4.05;;
67571;SDS011;54397;47.506;19.158;2024-02-23T05:54:56;4.82;;;3.55;;
67571;SDS011;54397;47.506;19.158;2024-02-23T05:58:18;5.43;;;3.15;;
67571;SDS011;54397;47.506;19.158;2024-02-23T06:01:39;3.92;;;3.17;;
67571;SDS011;54397;47.506;19.158;2024-02-23T06:05:05;5.15;;;3.30;;
67571;SDS011;54397;47.506;19.158;2024-02-23T06:08:29;4.72;;;3.50;;
67571;SDS011;54397;47.506;19.158;2024-02-23T06:11:51;5.65;;;3.55;;
67571;SDS011;54397;47.506;19.158;2024-02-23T06:15:15;5.93;;;3.90;;
67571;SDS011;54397;47.506;19.158;2024-02-23T06:18:39;7.28;;;4.45;;
67571;SDS011;54397;47.506;19.158;2024-02-23T06:22:02;6.28;;;4.20;;
67571;SDS011;54397;47.506;19.158;2024-02-23T06:25:31;4.63;;;3.80;;
67571;SDS011;54397;47.506;19.158;2024-02-23T06:28:57;8.48;;;5.30;;
67571;SDS011;54397;47.506;19.158;2024-02-23T06:32:19;6.18;;;3.85;;
67571;SDS011;54397;47.506;19.158;2024-02-23T06:35:47;6.50;;;4.30;;
67571;SDS011;54397;47.506;19.158;2024-02-23T06:39:14;5.95;;;3.65;;
67571;SDS011;54397;47.506;19.158;2024-02-23T06:42:41;3.70;;;3.35;;
67571;SDS011;54397;47.506;19.158;2024-02-23T06:46:04;4.15;;;3.38;;
67571;SDS011;54397;47.506;19.158;2024-02-23T06:49:28;4.40;;;3.17;;
67571;SDS011;54397;47.506;19.158;2024-02-23T06:52:50;4.05;;;3.10;;
67571;SDS011;54397;47.506;19.158;2024-02-23T06:56:11;3.72;;;3.33;;
67571;SDS011;54397;47.506;19.158;2024-02-23T06:59:35;5.57;;;3.60;;
67571;SDS011;54397;47.506;19.158;2024-02-23T07:02:57;6.38;;;3.50;;
67571;SDS011;54397;47.506;19.158;2024-02-23T07:06:20;4.95;;;3.80;;
67571;SDS011;54397;47.506;19.158;2024-02-23T07:09:42;7.10;;;4.07;;
67571;SDS011;54397;47.506;19.158;2024-02-23T07:13:03;5.38;;;3.90;;
67571;SDS011;54397;47.506;19.158;2024-02-23T07:16:27;6.00;;;4.18;;
67571;SDS011;54397;47.506;19.158;2024-02-23T07:19:49;4.18;;;3.75;;
67571;SDS011;54397;47.506;19.158;2024-02-23T07:23:12;4.97;;;3.72;;
67571;SDS011;54397;47.506;19.158;2024-02-23T07:26:34;7.68;;;4.88;;
67571;SDS011;54397;47.506;19.158;2024-02-23T07:29:58;6.30;;;4.60;;
67571;SDS011;54397;47.506;19.158;2024-02-23T07:33:20;7.00;;;4.30;;
67571;SDS011;54397;47.506;19.158;2024-02-23T07:36:44;6.93;;;4.50;;
67571;SDS011;54397;47.506;19.158;2024-02-23T07:40:07;5.95;;;5.07;;
67571;SDS011;54397;47.506;19.158;2024-02-23T07:43:29;7.40;;;5.05;;
67571;SDS011;54397;47.506;19.158;2024-02-23T07:46:53;9.27;;;5.68;;
67571;SDS011;54397;47.506;19.158;2024-02-23T07:50:16;9.02;;;5.13;;
67571;SDS011;54397;47.506;19.158;2024-02-23T07:53:40;8.45;;;5.65;;
67571;SDS011;54397;47.506;19.158;2024-02-23T07:57:06;9.10;;;4.88;;
67571;SDS011;54397;47.506;19.158;2024-02-23T08:00:28;6.68;;;4.63;;
67571;SDS011;54397;47.506;19.158;2024-02-23T08:03:50;4.75;;;4.25;;
67571;SDS011;54397;47.506;19.158;2024-02-23T08:07:13;7.40;;;4.78;;
67571;SDS011;54397;47.506;19.158;2024-02-23T08:10:36;8.20;;;4.80;;
67571;SDS011;54397;47.506;19.158;2024-02-23T08:13:57;6.65;;;5.20;;
67571;SDS011;54397;47.506;19.158;2024-02-23T08:17:22;9.85;;;7.32;;
67571;SDS011;54397;47.506;19.158;2024-02-23T08:20:44;7.85;;;6.10;;
67571;SDS011;54397;47.506;19.158;2024-02-23T08:24:06;8.13;;;6.38;;
67571;SDS011;54397;47.506;19.158;2024-02-23T08:27:29;8.60;;;5.65;;
67571;SDS011;54397;47.506;19.158;2024-02-23T08:30:53;6.30;;;4.95;;
67571;SDS011;54397;47.506;19.158;2024-02-23T08:34:15;6.78;;;5.22;;
67571;SDS011;54397;47.506;19.158;2024-02-23T08:37:39;7.25;;;4.95;;
67571;SDS011;54397;47.506;19.158;2024-02-23T08:41:03;10.48;;;5.22;;
67571;SDS011;54397;47.506;19.158;2024-02-23T08:44:25;5.97;;;4.72;;
67571;SDS011;54397;47.506;19.158;2024-02-23T08:47:47;7.60;;;5.13;;
67571;SDS011;54397;47.506;19.158;2024-02-23T08:51:08;6.57;;;5.40;;
67571;SDS011;54397;47.506;19.158;2024-02-23T08:54:30;6.68;;;5.05;;
67571;SDS011;54397;47.506;19.158;2024-02-23T08:57:52;7.07;;;5.05;;
67571;SDS011;54397;47.506;19.158;2024-02-23T09:01:13;7.18;;;4.85;;
67571;SDS011;54397;47.506;19.158;2024-02-23T09:04:37;8.88;;;5.53;;
67571;SDS011;54397;47.506;19.158;2024-02-23T09:07:59;6.20;;;4.57;;
67571;SDS011;54397;47.506;19.158;2024-02-23T09:11:25;6.82;;;4.57;;
67571;SDS011;54397;47.506;19.158;2024-02-23T09:14:47;5.40;;;4.20;;
67571;SDS011;54397;47.506;19.158;2024-02-23T09:18:09;5.35;;;4.57;;
67571;SDS011;54397;47.506;19.158;2024-02-23T09:21:30;5.30;;;4.13;;
67571;SDS011;54397;47.506;19.158;2024-02-23T09:24:54;6.53;;;4.95;;
67571;SDS011;54397;47.506;19.158;2024-02-23T09:28:17;8.75;;;5.03;;
67571;SDS011;54397;47.506;19.158;2024-02-23T09:31:41;5.53;;;4.78;;
67571;SDS011;54397;47.506;19.158;2024-02-23T09:35:03;8.23;;;4.95;;
67571;SDS011;54397;47.506;19.158;2024-02-23T09:38:27;13.63;;;6.72;;
67571;SDS011;54397;47.506;19.158;2024-02-23T09:41:52;7.82;;;5.60;;
67571;SDS011;54397;47.506;19.158;2024-02-23T09:45:15;6.05;;;4.70;;
67571;SDS011;54397;47.506;19.158;2024-02-23T09:48:42;9.13;;;5.43;;
67571;SDS011;54397;47.506;19.158;2024-02-23T09:52:07;7.28;;;5.22;;
67571;SDS011;54397;47.506;19.158;2024-02-23T09:55:32;8.65;;;5.18;;
67571;SDS011;54397;47.506;19.158;2024-02-23T09:58:55;6.50;;;4.85;;
67571;SDS011;54397;47.506;19.158;2024-02-23T10:02:18;6.15;;;4.25;;
67571;SDS011;54397;47.506;19.158;2024-02-23T10:05:40;4.85;;;3.15;;
67571;SDS011;54397;47.506;19.158;2024-02-23T10:09:05;4.63;;;3.13;;
67571;SDS011;54397;47.506;19.158;2024-02-23T10:12:30;4.10;;;2.85;;
67571;SDS011;54397;47.506;19.158;2024-02-23T10:15:54;4.63;;;3.10;;
67571;SDS011;54397;47.506;19.158;2024-02-23T10:19:35;5.65;;;3.50;;
67571;SDS011;54397;47.506;19.158;2024-02-23T10:22:56;5.30;;;3.38;;
67571;SDS011;54397;47.506;19.158;2024-02-23T10:26:18;5.03;;;3.40;;
67571;SDS011;54397;47.506;19.158;2024-02-23T10:29:44;4.35;;;3.20;;
67571;SDS011;54397;47.506;19.158;2024-02-23T10:33:10;5.60;;;3.55;;
67571;SDS011;54397;47.506;19.158;2024-02-23T10:36:34;4.80;;;3.72;;
67571;SDS011;54397;47.506;19.158;2024-02-23T10:39:57;9.30;;;4.28;;
67571;SDS011;54397;47.506;19.158;2024-02-23T10:43:26;7.63;;;4.30;;
67571;SDS011;54397;47.506;19.158;2024-02-23T10:46:54;4.90;;;3.42;;
67571;SDS011;54397;47.506;19.158;2024-02-23T10:50:21;4.78;;;3.60;;
67571;SDS011;54397;47.506;19.158;2024-02-23T10:53:44;7.03;;;4.25;;
67571;SDS011;54397;47.506;19.158;2024-02-23T10:57:07;7.95;;;5.15;;
67571;SDS011;54397;47.506;19.158;2024-02-23T11:00:29;8.43;;;5.63;;
67571;SDS011;54397;47.506;19.158;2024-02-23T11:03:52;8.07;;;4.90;;
67571;SDS011;54397;47.506;19.158;2024-02-23T11:07:14;5.57;;;4.45;;
67571;SDS011;54397;47.506;19.158;2024-02-23T11:10:43;6.40;;;4.43;;
67571;SDS011;54397;47.506;19.158;2024-02-23T11:14:14;7.50;;;4.13;;
67571;SDS011;54397;47.506;19.158;2024-02-23T11:17:36;5.43;;;4.15;;
67571;SDS011;54397;47.506;19.158;2024-02-23T11:21:01;4.38;;;3.60;;
67571;SDS011;54397;47.506;19.158;2024-02-23T11:24:28;5.32;;;3.60;;
67571;SDS011;54397;47.506;19.158;2024-02-23T11:27:50;4.70;;;3.30;;
67571;SDS011;54397;47.506;19.158;2024-02-23T11:31:13;3.22;;;2.88;;
67571;SDS011;54397;47.506;19.158;2024-02-23T11:34:35;4.35;;;2.90;;
67571;SDS011;54397;47.506;19.158;2024-02-23T11:37:57;6.00;;;3.15;;
67571;SDS011;54397;47.506;19.158;2024-02-23T11:41:23;4.35;;;3.10;;
67571;SDS011;54397;47.506;19.158;2024-02-23T11:44:50;4.97;;;3.30;;
67571;SDS011;54397;47.506;19.158;2024-02-23T11:48:15;5.10;;;3.60;;
67571;SDS011;54397;47.506;19.158;2024-02-23T11:51:39;7.40;;;4.90;;
67571;SDS011;54397;47.506;19.158;2024-02-23T11:55:03;7.43;;;5.00;;
67571;SDS011;54397;47.506;19.158;2024-02-23T11:58:26;6.57;;;4.55;;
67571;SDS011;54397;47.506;19.158;2024-02-23T12:01:48;9.30;;;4.40;;
67571;SDS011;54397;47.506;19.158;2024-02-23T12:05:10;7.05;;;4.88;;
67571;SDS011;54397;47.506;19.158;2024-02-23T12:08:32;13.73;;;5.07;;
67571;SDS011;54397;47.506;19.158;2024-02-23T12:11:59;9.45;;;4.65;;
67571;SDS011;54397;47.506;19.158;2024-02-23T12:15:21;8.60;;;4.70;;
67571;SDS011;54397;47.506;19.158;2024-02-23T12:18:45;10.00;;;4.80;;
67571;SDS011;54397;47.506;19.158;2024-02-23T12:22:16;7.70;;;4.82;;
67571;SDS011;54397;47.506;19.158;2024-02-23T12:25:39;8.70;;;5.28;;
67571;SDS011;54397;47.506;19.158;2024-02-23T12:29:13;12.20;;;5.75;;
67571;SDS011;54397;47.506;19.158;2024-02-23T12:32:37;10.00;;;5.93;;
67571;SDS011;54397;47.506;19.158;2024-02-23T12:35:59;6.85;;;5.32;;
67571;SDS011;54397;47.506;19.158;2024-02-23T12:39:21;6.57;;;4.82;;
67571;SDS011;54397;47.506;19.158;2024-02-23T12:42:48;8.30;;;4.32;;
67571;SDS011;54397;47.506;19.158;2024-02-23T12:46:17;8.90;;;4.65;;
67571;SDS011;54397;47.506;19.158;2024-02-23T12:49:39;6.55;;;4.43;;
67571;SDS011;54397;47.506;19.158;2024-02-23T12:53:06;8.15;;;4.88;;
67571;SDS011;54397;47.506;19.158;2024-02-23T12:56:30;5.30;;;4.60;;
67571;SDS011;54397;47.506;19.158;2024-02-23T12:59:55;8.82;;;4.93;;
67571;SDS011;54397;47.506;19.158;2024-02-23T13:03:19;6.93;;;5.20;;
67571;SDS011;54397;47.506;19.158;2024-02-23T13:06:40;10.05;;;5.60;;
67571;SDS011;54397;47.506;19.158;2024-02-23T13:10:03;6.75;;;5.53;;
67571;SDS011;54397;47.506;19.158;2024-02-23T13:13:25;7.00;;;4.75;;
67571;SDS011;54397;47.506;19.158;2024-02-23T13:16:53;12.87;;;5.70;;
67571;SDS011;54397;47.506;19.158;2024-02-23T13:20:15;6.03;;;4.72;;
67571;SDS011;54397;47.506;19.158;2024-02-23T13:23:37;6.38;;;4.97;;
67571;SDS011;54397;47.506;19.158;2024-02-23T13:26:59;8.13;;;5.32;;
67571;SDS011;54397;47.506;19.158;2024-02-23T13:30:20;7.85;;;5.15;;
67571;SDS011;54397;47.506;19.158;2024-02-23T13:33:44;7.18;;;4.80;;
67571;SDS011;54397;47.506;19.158;2024-02-23T13:37:06;9.18;;;5.30;;
67571;SDS011;54397;47.506;19.158;2024-02-23T13:40:31;6.63;;;5.32;;
67571;SDS011;54397;47.506;19.158;2024-02-23T13:43:55;9.13;;;5.45;;
67571;SDS011;54397;47.506;19.158;2024-02-23T13:47:17;6.55;;;5.28;;
67571;SDS011;54397;47.506;19.158;2024-02-23T13:50:41;8.48;;;5.85;;
67571;SDS011;54397;47.506;19.158;2024-02-23T13:54:03;8.10;;;5.38;;
67571;SDS011;54397;47.506;19.158;2024-02-23T13:57:29;13.52;;;7.75;;
67571;SDS011;54397;47.506;19.158;2024-02-23T14:00:54;6.55;;;5.53;;
67571;SDS011;54397;47.506;19.158;2024-02-23T14:04:18;9.35;;;6.53;;
67571;SDS011;54397;47.506;19.158;2024-02-23T14:07:42;10.70;;;6.07;;
67571;SDS011;54397;47.506;19.158;2024-02-23T14:11:04;9.68;;;6.00;;
67571;SDS011;54397;47.506;19.158;2024-02-23T14:14:28;10.05;;;6.38;;
67571;SDS011;54397;47.506;19.158;2024-02-23T14:17:50;10.50;;;6.13;;
67571;SDS011;54397;47.506;19.158;2024-02-23T14:21:12;9.65;;;6.15;;
67571;SDS011;54397;47.506;19.158;2024-02-23T14:24:35;11.52;;;6.82;;
67571;SDS011;54397;47.506;19.158;2024-02-23T14:27:57;10.30;;;6.53;;
67571;SDS011;54397;47.506;19.158;2024-02-23T14:31:21;8.48;;;6.55;;
67571;SDS011;54397;47.506;19.158;2024-02-23T14:34:45;8.10;;;6.60;;
67571;SDS011;54397;47.506;19.158;2024-02-23T14:38:09;10.80;;;6.45;;
67571;SDS011;54397;47.506;19.158;2024-02-23T14:41:31;13.10;;;6.90;;
67571;SDS011;54397;47.506;19.158;2024-02-23T14:44:56;8.35;;;6.13;;
67571;SDS011;54397;47.506;19.158;2024-02-23T14:48:20;7.55;;;5.30;;
67571;SDS011;54397;47.506;19.158;2024-02-23T14:51:42;7.90;;;5.80;;
67571;SDS011;54397;47.506;19.158;2024-02-23T14:55:09;8.65;;;5.75;;
67571;SDS011;54397;47.506;19.158;2024-02-23T14:58:37;9.23;;;6.35;;
67571;SDS011;54397;47.506;19.158;2024-02-23T15:02:01;10.80;;;6.53;;
67571;SDS011;54397;47.506;19.158;2024-02-23T15:05:23;11.13;;;6.57;;
67571;SDS011;54397;47.506;19.158;2024-02-23T15:08:45;10.70;;;8.10;;
67571;SDS011;54397;47.506;19.158;2024-02-23T15:12:07;11.23;;;7.70;;
67571;SDS011;54397;47.506;19.158;2024-02-23T15:15:29;13.70;;;8.50;;
67571;SDS011;54397;47.506;19.158;2024-02-23T15:18:53;14.55;;;9.48;;
67571;SDS011;54397;47.506;19.158;2024-02-23T15:22:15;13.82;;;8.85;;
67571;SDS011;54397;47.506;19.158;2024-02-23T15:25:41;19.38;;;9.50;;
67571;SDS011;54397;47.506;19.158;2024-02-23T15:29:07;14.85;;;9.15;;
67571;SDS011;54397;47.506;19.158;2024-02-23T15:32:32;11.23;;;7.53;;
67571;SDS011;54397;47.506;19.158;2024-02-23T15:35:56;10.20;;;7.00;;
67571;SDS011;54397;47.506;19.158;2024-02-23T15:39:20;11.85;;;7.50;;
67571;SDS011;54397;47.506;19.158;2024-02-23T15:42:42;11.45;;;7.68;;
67571;SDS011;54397;47.506;19.158;2024-02-23T15:46:06;9.15;;;6.72;;
67571;SDS011;54397;47.506;19.158;2024-02-23T15:49:30;11.25;;;7.57;;
67571;SDS011;54397;47.506;19.158;2024-02-23T15:53:12;26.90;;;7.68;;
67571;SDS011;54397;47.506;19.158;2024-02-23T15:56:34;14.32;;;6.50;;
67571;SDS011;54397;47.506;19.158;2024-02-23T16:00:02;10.38;;;6.18;;
67571;SDS011;54397;47.506;19.158;2024-02-23T16:03:26;13.40;;;6.68;;
67571;SDS011;54397;47.506;19.158;2024-02-23T16:06:48;9.75;;;6.47;;
67571;SDS011;54397;47.506;19.158;2024-02-23T16:10:09;9.88;;;6.57;;
67571;SDS011;54397;47.506;19.158;2024-02-23T16:13:34;7.72;;;6.43;;
67571;SDS011;54397;47.506;19.158;2024-02-23T16:16:55;8.70;;;6.50;;
67571;SDS011;54397;47.506;19.158;2024-02-23T16:20:17;8.15;;;6.38;;
67571;SDS011;54397;47.506;19.158;2024-02-23T16:23:44;11.75;;;8.35;;
67571;SDS011;54397;47.506;19.158;2024-02-23T16:27:06;12.13;;;7.75;;
67571;SDS011;54397;47.506;19.158;2024-02-23T16:30:30;9.52;;;7.38;;
67571;SDS011;54397;47.506;19.158;2024-02-23T16:33:53;12.18;;;8.32;;
67571;SDS011;54397;47.506;19.158;2024-02-23T16:37:15;14.27;;;8.68;;
67571;SDS011;54397;47.506;19.158;2024-02-23T16:40:37;10.88;;;7.70;;
67571;SDS011;54397;47.506;19.158;2024-02-23T16:44:02;12.07;;;7.78;;
67571;SDS011;54397;47.506;19.158;2024-02-23T16:47:24;11.55;;;8.65;;
67571;SDS011;54397;47.506;19.158;2024-02-23T16:50:50;12.35;;;8.15;;
67571;SDS011;54397;47.506;19.158;2024-02-23T16:54:12;11.15;;;7.90;;
67571;SDS011;54397;47.506;19.158;2024-02-23T16:57:34;11.63;;;8.30;;
67571;SDS011;54397;47.506;19.158;2024-02-23T17:00:56;12.82;;;9.48;;
67571;SDS011;54397;47.506;19.158;2024-02-23T17:04:20;12.43;;;8.32;;
67571;SDS011;54397;47.506;19.158;2024-02-23T17:07:44;11.57;;;7.90;;
67571;SDS011;54397;47.506;19.158;2024-02-23T17:11:08;12.50;;;8.20;;
67571;SDS011;54397;47.506;19.158;2024-02-23T17:14:30;11.20;;;8.18;;
67571;SDS011;54397;47.506;19.158;2024-02-23T17:17:54;16.13;;;8.15;;
67571;SDS011;54397;47.506;19.158;2024-02-23T17:21:16;15.32;;;8.30;;
67571;SDS011;54397;47.506;19.158;2024-02-23T17:24:42;14.57;;;9.07;;
67571;SDS011;54397;47.506;19.158;2024-02-23T17:28:06;8.70;;;5.03;;
67571;SDS011;54397;47.506;19.158;2024-02-23T17:31:28;6.53;;;5.40;;
67571;SDS011;54397;47.506;19.158;2024-02-23T17:34:50;10.02;;;5.10;;
67571;SDS011;54397;47.506;19.158;2024-02-23T17:38:11;8.95;;;5.78;;
67571;SDS011;54397;47.506;19.158;2024-02-23T17:41:33;9.75;;;7.72;;
67571;SDS011;54397;47.506;19.158;2024-02-23T17:44:57;12.10;;;7.75;;
67571;SDS011;54397;47.506;19.158;2024-02-23T17:48:21;10.02;;;6.82;;
67571;SDS011;54397;47.506;19.158;2024-02-23T17:51:45;12.70;;;8.95;;
67571;SDS011;54397;47.506;19.158;2024-02-23T17:55:09;16.38;;;9.27;;
67571;SDS011;54397;47.506;19.158;2024-02-23T17:58:33;14.18;;;9.82;;
67571;SDS011;54397;47.506;19.158;2024-02-23T18:01:57;17.63;;;10.07;;
67571;SDS011;54397;47.506;19.158;2024-02-23T18:05:18;13.73;;;10.32;;
67571;SDS011;54397;47.506;19.158;2024-02-23T18:08:40;12.98;;;9.35;;
67571;SDS011;54397;47.506;19.158;2024-02-23T18:12:02;15.50;;;10.82;;
67571;SDS011;54397;47.506;19.158;2024-02-23T18:15:24;16.23;;;10.10;;
67571;SDS011;54397;47.506;19.158;2024-02-23T18:18:46;17.13;;;9.15;;
67571;SDS011;54397;47.506;19.158;2024-02-23T18:22:10;13.05;;;9.35;;
67571;SDS011;54397;47.506;19.158;2024-02-23T18:25:35;13.07;;;9.43;;
67571;SDS011;54397;47.506;19.158;2024-02-23T18:28:56;13.75;;;9.80;;
67571;SDS011;54397;47.506;19.158;2024-02-23T18:32:18;13.05;;;9.80;;
67571;SDS011;54397;47.506;19.158;2024-02-23T18:35:40;21.40;;;10.32;;
67571;SDS011;54397;47.506;19.158;2024-02-23T18:39:07;14.32;;;9.57;;
67571;SDS011;54397;47.506;19.158;2024-02-23T18:42:33;14.07;;;9.60;;
67571;SDS011;54397;47.506;19.158;2024-02-23T18:45:54;14.18;;;9.32;;
67571;SDS011;54397;47.506;19.158;2024-02-23T18:49:16;15.73;;;9.52;;
67571;SDS011;54397;47.506;19.158;2024-02-23T18:52:40;14.80;;;9.00;;
67571;SDS011;54397;47.506;19.158;2024-02-23T18:56:02;13.13;;;9.10;;
67571;SDS011;54397;47.506;19.158;2024-02-23T18:59:27;13.80;;;9.70;;
67571;SDS011;54397;47.506;19.158;2024-02-23T19:02:52;13.77;;;8.93;;
67571;SDS011;54397;47.506;19.158;2024-02-23T19:06:16;14.30;;;9.40;;
67571;SDS011;54397;47.506;19.158;2024-02-23T19:09:40;13.52;;;8.95;;
67571;SDS011;54397;47.506;19.158;2024-02-23T19:13:03;15.75;;;10.32;;
67571;SDS011;54397;47.506;19.158;2024-02-23T19:16:25;15.55;;;9.20;;
67571;SDS011;54397;47.506;19.158;2024-02-23T19:19:46;12.27;;;8.80;;
67571;SDS011;54397;47.506;19.158;2024-02-23T19:23:11;10.63;;;8.02;;
67571;SDS011;54397;47.506;19.158;2024-02-23T19:26:35;13.10;;;9.15;;
67571;SDS011;54397;47.506;19.158;2024-02-23T19:29:59;14.20;;;9.32;;
67571;SDS011;54397;47.506;19.158;2024-02-23T19:33:24;12.23;;;8.40;;
67571;SDS011;54397;47.506;19.158;2024-02-23T19:36:46;11.20;;;8.27;;
67571;SDS011;54397;47.506;19.158;2024-02-23T19:40:10;12.55;;;8.60;;
67571;SDS011;54397;47.506;19.158;2024-02-23T19:43:39;16.25;;;9.25;;
67571;SDS011;54397;47.506;19.158;2024-02-23T19:47:03;11.88;;;8.70;;
67571;SDS011;54397;47.506;19.158;2024-02-23T19:50:27;14.02;;;8.95;;
67571;SDS011;54397;47.506;19.158;2024-02-23T19:53:54;11.80;;;8.88;;
67571;SDS011;54397;47.506;19.158;2024-02-23T19:57:18;14.68;;;9.05;;
67571;SDS011;54397;47.506;19.158;2024-02-23T20:00:39;14.27;;;9.55;;
67571;SDS011;54397;47.506;19.158;2024-02-23T20:04:01;12.15;;;8.77;;